sensor_id;sensor_type;location;lat;lon;timestamp;P1;durP1;ratioP1;P2;durP2;ratioP2
1509;SDS011;746;48.688;9.428;2022-07-29T00:00:09;11.77;;;10.73;;
1509;SDS011;746;48.688;9.428;2022-07-29T00:02:33;13.80;;;12.70;;
1509;SDS011;746;48.688;9.428;2022-07-29T00:04:55;12.73;;;11.83;;
1509;SDS011;746;48.688;9.428;2022-07-29T00:07:16;12.03;;;10.90;;
1509;SDS011;746;48.688;9.428;2022-07-29T00:09:38;11.70;;;10.70;;
1509;SDS011;746;48.688;9.428;2022-07-29T00:12:11;11.80;;;10.87;;
1509;SDS011;746;48.688;9.428;2022-07-29T00:14:33;12.13;;;11.17;;
1509;SDS011;746;48.688;9.428;2022-07-29T00:16:54;11.73;;;10.73;;
1509;SDS011;746;48.688;9.428;2022-07-29T00:19:18;12.83;;;11.73;;
1509;SDS011;746;48.688;9.428;2022-07-29T00:21:40;13.43;;;12.23;;
1509;SDS011;746;48.688;9.428;2022-07-29T00:24:02;12.73;;;11.60;;
1509;SDS011;746;48.688;9.428;2022-07-29T00:26:23;12.43;;;11.33;;
1509;SDS011;746;48.688;9.428;2022-07-29T00:28:47;12.40;;;11.30;;
1509;SDS011;746;48.688;9.428;2022-07-29T00:31:09;13.10;;;12.00;;
1509;SDS011;746;48.688;9.428;2022-07-29T00:33:31;12.37;;;11.20;;
1509;SDS011;746;48.688;9.428;2022-07-29T00:35:53;12.60;;;11.43;;
1509;SDS011;746;48.688;9.428;2022-07-29T00:38:16;12.70;;;11.73;;
1509;SDS011;746;48.688;9.428;2022-07-29T00:40:40;13.73;;;12.13;;
1509;SDS011;746;48.688;9.428;2022-07-29T00:43:03;12.03;;;11.00;;
1509;SDS011;746;48.688;9.428;2022-07-29T00:45:25;12.23;;;11.13;;
1509;SDS011;746;48.688;9.428;2022-07-29T00:47:47;13.87;;;12.57;;
1509;SDS011;746;48.688;9.428;2022-07-29T00:50:09;15.40;;;14.13;;
1509;SDS011;746;48.688;9.428;2022-07-29T00:52:33;14.27;;;13.03;;
1509;SDS011;746;48.688;9.428;2022-07-29T00:54:56;13.90;;;12.70;;
1509;SDS011;746;48.688;9.428;2022-07-29T00:57:23;14.10;;;12.97;;
1509;SDS011;746;48.688;9.428;2022-07-29T00:59:45;14.17;;;12.80;;
1509;SDS011;746;48.688;9.428;2022-07-29T01:02:06;13.60;;;12.50;;
1509;SDS011;746;48.688;9.428;2022-07-29T01:04:28;12.57;;;11.50;;
1509;SDS011;746;48.688;9.428;2022-07-29T01:06:50;12.83;;;11.80;;
1509;SDS011;746;48.688;9.428;2022-07-29T01:09:14;13.37;;;12.17;;
1509;SDS011;746;48.688;9.428;2022-07-29T01:11:56;12.90;;;11.90;;
1509;SDS011;746;48.688;9.428;2022-07-29T01:14:18;13.50;;;12.47;;
1509;SDS011;746;48.688;9.428;2022-07-29T01:16:45;14.23;;;12.83;;
1509;SDS011;746;48.688;9.428;2022-07-29T01:19:13;14.10;;;12.93;;
1509;SDS011;746;48.688;9.428;2022-07-29T01:21:50;13.83;;;12.57;;
1509;SDS011;746;48.688;9.428;2022-07-29T01:24:29;14.33;;;12.90;;
1509;SDS011;746;48.688;9.428;2022-07-29T01:26:56;13.43;;;12.33;;
1509;SDS011;746;48.688;9.428;2022-07-29T01:29:23;14.80;;;13.50;;
1509;SDS011;746;48.688;9.428;2022-07-29T01:31:56;14.87;;;13.67;;
1509;SDS011;746;48.688;9.428;2022-07-29T01:34:20;14.50;;;13.30;;
1509;SDS011;746;48.688;9.428;2022-07-29T01:36:43;14.37;;;13.27;;
1509;SDS011;746;48.688;9.428;2022-07-29T01:39:09;16.33;;;14.73;;
1509;SDS011;746;48.688;9.428;2022-07-29T01:41:32;13.27;;;12.17;;
1509;SDS011;746;48.688;9.428;2022-07-29T01:43:57;14.50;;;13.03;;
1509;SDS011;746;48.688;9.428;2022-07-29T01:46:24;14.50;;;13.03;;
1509;SDS011;746;48.688;9.428;2022-07-29T01:48:50;13.20;;;11.83;;
1509;SDS011;746;48.688;9.428;2022-07-29T01:51:16;14.10;;;13.00;;
1509;SDS011;746;48.688;9.428;2022-07-29T01:53:42;14.07;;;12.87;;
1509;SDS011;746;48.688;9.428;2022-07-29T01:56:08;15.80;;;14.33;;
1509;SDS011;746;48.688;9.428;2022-07-29T01:58:31;17.37;;;15.93;;
1509;SDS011;746;48.688;9.428;2022-07-29T02:00:53;14.73;;;13.53;;
1509;SDS011;746;48.688;9.428;2022-07-29T02:03:19;15.10;;;13.40;;
1509;SDS011;746;48.688;9.428;2022-07-29T02:05:42;15.40;;;14.03;;
1509;SDS011;746;48.688;9.428;2022-07-29T02:08:06;16.57;;;14.87;;
1509;SDS011;746;48.688;9.428;2022-07-29T02:10:32;15.37;;;13.87;;
1509;SDS011;746;48.688;9.428;2022-07-29T02:12:55;15.13;;;13.73;;
1509;SDS011;746;48.688;9.428;2022-07-29T02:15:18;14.37;;;13.17;;
1509;SDS011;746;48.688;9.428;2022-07-29T02:17:41;15.30;;;13.90;;
1509;SDS011;746;48.688;9.428;2022-07-29T02:20:05;14.97;;;13.40;;
1509;SDS011;746;48.688;9.428;2022-07-29T02:22:31;15.30;;;13.80;;
1509;SDS011;746;48.688;9.428;2022-07-29T02:24:55;15.20;;;13.90;;
1509;SDS011;746;48.688;9.428;2022-07-29T02:27:20;14.43;;;12.93;;
1509;SDS011;746;48.688;9.428;2022-07-29T02:29:44;14.60;;;13.20;;
1509;SDS011;746;48.688;9.428;2022-07-29T02:32:06;16.00;;;14.30;;
1509;SDS011;746;48.688;9.428;2022-07-29T02:34:29;15.93;;;14.63;;
1509;SDS011;746;48.688;9.428;2022-07-29T02:36:53;15.27;;;14.07;;
1509;SDS011;746;48.688;9.428;2022-07-29T02:39:15;14.03;;;12.73;;
1509;SDS011;746;48.688;9.428;2022-07-29T02:41:40;14.33;;;13.03;;
1509;SDS011;746;48.688;9.428;2022-07-29T02:44:03;15.20;;;13.80;;
1509;SDS011;746;48.688;9.428;2022-07-29T02:46:31;14.33;;;13.07;;
1509;SDS011;746;48.688;9.428;2022-07-29T02:48:57;14.20;;;13.00;;
1509;SDS011;746;48.688;9.428;2022-07-29T02:51:23;14.07;;;13.00;;
1509;SDS011;746;48.688;9.428;2022-07-29T02:54:06;13.03;;;11.90;;
1509;SDS011;746;48.688;9.428;2022-07-29T02:56:28;11.97;;;10.97;;
1509;SDS011;746;48.688;9.428;2022-07-29T02:58:55;12.30;;;11.20;;
1509;SDS011;746;48.688;9.428;2022-07-29T03:01:19;11.70;;;10.60;;
1509;SDS011;746;48.688;9.428;2022-07-29T03:03:43;12.40;;;11.30;;
1509;SDS011;746;48.688;9.428;2022-07-29T03:06:06;11.63;;;10.73;;
1509;SDS011;746;48.688;9.428;2022-07-29T03:08:49;12.10;;;11.00;;
1509;SDS011;746;48.688;9.428;2022-07-29T03:11:13;11.40;;;10.57;;
1509;SDS011;746;48.688;9.428;2022-07-29T03:13:35;11.37;;;10.37;;
1509;SDS011;746;48.688;9.428;2022-07-29T03:15:58;12.23;;;11.07;;
1509;SDS011;746;48.688;9.428;2022-07-29T03:18:20;10.77;;;10.00;;
1509;SDS011;746;48.688;9.428;2022-07-29T03:20:42;10.97;;;9.97;;
1509;SDS011;746;48.688;9.428;2022-07-29T03:23:04;11.20;;;10.10;;
1509;SDS011;746;48.688;9.428;2022-07-29T03:25:26;12.07;;;11.17;;
1509;SDS011;746;48.688;9.428;2022-07-29T03:27:51;11.43;;;10.53;;
1509;SDS011;746;48.688;9.428;2022-07-29T03:30:14;10.67;;;9.77;;
1509;SDS011;746;48.688;9.428;2022-07-29T03:32:41;11.23;;;10.33;;
1509;SDS011;746;48.688;9.428;2022-07-29T03:35:04;11.27;;;10.10;;
1509;SDS011;746;48.688;9.428;2022-07-29T03:37:26;11.90;;;10.90;;
1509;SDS011;746;48.688;9.428;2022-07-29T03:39:50;11.60;;;10.70;;
1509;SDS011;746;48.688;9.428;2022-07-29T03:42:13;12.10;;;11.00;;
1509;SDS011;746;48.688;9.428;2022-07-29T03:44:39;11.33;;;10.53;;
1509;SDS011;746;48.688;9.428;2022-07-29T03:47:02;11.40;;;10.50;;
1509;SDS011;746;48.688;9.428;2022-07-29T03:49:25;11.23;;;10.20;;
1509;SDS011;746;48.688;9.428;2022-07-29T03:51:49;11.17;;;10.33;;
1509;SDS011;746;48.688;9.428;2022-07-29T03:54:11;12.07;;;11.17;;
1509;SDS011;746;48.688;9.428;2022-07-29T03:56:37;12.13;;;11.13;;
1509;SDS011;746;48.688;9.428;2022-07-29T03:58:59;11.13;;;10.23;;
1509;SDS011;746;48.688;9.428;2022-07-29T04:01:24;12.13;;;11.00;;
1509;SDS011;746;48.688;9.428;2022-07-29T04:03:47;11.37;;;10.47;;
1509;SDS011;746;48.688;9.428;2022-07-29T04:06:08;12.77;;;11.67;;
1509;SDS011;746;48.688;9.428;2022-07-29T04:08:29;12.03;;;11.03;;
1509;SDS011;746;48.688;9.428;2022-07-29T04:10:51;10.93;;;10.03;;
1509;SDS011;746;48.688;9.428;2022-07-29T04:13:13;12.40;;;11.40;;
1509;SDS011;746;48.688;9.428;2022-07-29T04:15:34;12.37;;;11.40;;
1509;SDS011;746;48.688;9.428;2022-07-29T04:17:58;11.43;;;10.63;;
1509;SDS011;746;48.688;9.428;2022-07-29T04:20:20;11.47;;;10.57;;
1509;SDS011;746;48.688;9.428;2022-07-29T04:22:41;12.00;;;10.53;;
1509;SDS011;746;48.688;9.428;2022-07-29T04:25:03;11.07;;;10.07;;
1509;SDS011;746;48.688;9.428;2022-07-29T04:27:25;12.40;;;11.43;;
1509;SDS011;746;48.688;9.428;2022-07-29T04:29:46;11.57;;;10.43;;
1509;SDS011;746;48.688;9.428;2022-07-29T04:32:16;11.93;;;10.90;;
1509;SDS011;746;48.688;9.428;2022-07-29T04:34:42;11.67;;;10.67;;
1509;SDS011;746;48.688;9.428;2022-07-29T04:37:06;11.13;;;10.33;;
1509;SDS011;746;48.688;9.428;2022-07-29T04:39:28;10.90;;;10.17;;
1509;SDS011;746;48.688;9.428;2022-07-29T04:41:50;11.37;;;10.40;;
1509;SDS011;746;48.688;9.428;2022-07-29T04:44:15;11.90;;;10.77;;
1509;SDS011;746;48.688;9.428;2022-07-29T04:46:38;10.30;;;9.60;;
1509;SDS011;746;48.688;9.428;2022-07-29T04:48:59;10.60;;;9.80;;
1509;SDS011;746;48.688;9.428;2022-07-29T04:51:22;11.13;;;10.30;;
1509;SDS011;746;48.688;9.428;2022-07-29T04:53:44;11.60;;;10.40;;
1509;SDS011;746;48.688;9.428;2022-07-29T04:56:05;11.27;;;10.17;;
1509;SDS011;746;48.688;9.428;2022-07-29T04:58:27;10.93;;;10.13;;
1509;SDS011;746;48.688;9.428;2022-07-29T05:00:49;11.50;;;10.60;;
1509;SDS011;746;48.688;9.428;2022-07-29T05:03:11;11.43;;;10.53;;
1509;SDS011;746;48.688;9.428;2022-07-29T05:05:33;12.40;;;11.10;;
1509;SDS011;746;48.688;9.428;2022-07-29T05:07:56;11.60;;;10.60;;
1509;SDS011;746;48.688;9.428;2022-07-29T05:10:17;10.77;;;9.87;;
1509;SDS011;746;48.688;9.428;2022-07-29T05:12:39;11.07;;;10.27;;
1509;SDS011;746;48.688;9.428;2022-07-29T05:15:00;12.30;;;11.33;;
1509;SDS011;746;48.688;9.428;2022-07-29T05:17:22;12.10;;;11.10;;
1509;SDS011;746;48.688;9.428;2022-07-29T05:19:43;13.27;;;12.37;;
1509;SDS011;746;48.688;9.428;2022-07-29T05:22:05;12.23;;;11.07;;
1509;SDS011;746;48.688;9.428;2022-07-29T05:24:28;10.80;;;10.00;;
1509;SDS011;746;48.688;9.428;2022-07-29T05:26:50;11.87;;;10.73;;
1509;SDS011;746;48.688;9.428;2022-07-29T05:29:11;11.83;;;10.90;;
1509;SDS011;746;48.688;9.428;2022-07-29T05:31:53;10.73;;;9.93;;
1509;SDS011;746;48.688;9.428;2022-07-29T05:34:14;11.33;;;10.43;;
1509;SDS011;746;48.688;9.428;2022-07-29T05:36:37;11.27;;;10.37;;
1509;SDS011;746;48.688;9.428;2022-07-29T05:38:59;11.83;;;10.90;;
1509;SDS011;746;48.688;9.428;2022-07-29T05:41:21;11.80;;;10.90;;
1509;SDS011;746;48.688;9.428;2022-07-29T05:43:43;12.03;;;11.13;;
1509;SDS011;746;48.688;9.428;2022-07-29T05:46:04;11.33;;;10.30;;
1509;SDS011;746;48.688;9.428;2022-07-29T05:48:25;11.67;;;10.77;;
1509;SDS011;746;48.688;9.428;2022-07-29T05:50:47;10.20;;;9.50;;
1509;SDS011;746;48.688;9.428;2022-07-29T05:53:09;11.63;;;10.73;;
1509;SDS011;746;48.688;9.428;2022-07-29T05:55:39;9.60;;;8.97;;
1509;SDS011;746;48.688;9.428;2022-07-29T05:58:02;10.47;;;9.47;;
1509;SDS011;746;48.688;9.428;2022-07-29T06:00:23;9.53;;;8.87;;
1509;SDS011;746;48.688;9.428;2022-07-29T06:02:44;10.40;;;9.40;;
1509;SDS011;746;48.688;9.428;2022-07-29T06:05:07;10.57;;;9.77;;
1509;SDS011;746;48.688;9.428;2022-07-29T06:07:36;10.40;;;9.70;;
1509;SDS011;746;48.688;9.428;2022-07-29T06:10:09;9.63;;;8.93;;
1509;SDS011;746;48.688;9.428;2022-07-29T06:12:30;10.63;;;9.83;;
1509;SDS011;746;48.688;9.428;2022-07-29T06:14:53;10.43;;;9.70;;
1509;SDS011;746;48.688;9.428;2022-07-29T06:17:15;10.33;;;9.63;;
1509;SDS011;746;48.688;9.428;2022-07-29T06:19:37;10.97;;;10.17;;
1509;SDS011;746;48.688;9.428;2022-07-29T06:21:59;9.40;;;8.70;;
1509;SDS011;746;48.688;9.428;2022-07-29T06:24:20;9.40;;;8.60;;
1509;SDS011;746;48.688;9.428;2022-07-29T06:26:41;10.10;;;9.30;;
1509;SDS011;746;48.688;9.428;2022-07-29T06:29:03;9.27;;;8.47;;
1509;SDS011;746;48.688;9.428;2022-07-29T06:31:27;8.67;;;8.07;;
1509;SDS011;746;48.688;9.428;2022-07-29T06:33:49;8.27;;;7.73;;
1509;SDS011;746;48.688;9.428;2022-07-29T06:36:13;8.33;;;7.70;;
1509;SDS011;746;48.688;9.428;2022-07-29T06:38:36;8.53;;;7.93;;
1509;SDS011;746;48.688;9.428;2022-07-29T06:41:00;8.27;;;7.60;;
1509;SDS011;746;48.688;9.428;2022-07-29T06:43:23;7.70;;;7.10;;
1509;SDS011;746;48.688;9.428;2022-07-29T06:45:46;8.53;;;7.83;;
1509;SDS011;746;48.688;9.428;2022-07-29T06:48:09;8.07;;;7.57;;
1509;SDS011;746;48.688;9.428;2022-07-29T06:50:30;8.17;;;7.57;;
1509;SDS011;746;48.688;9.428;2022-07-29T06:52:52;8.47;;;7.87;;
1509;SDS011;746;48.688;9.428;2022-07-29T06:55:13;7.93;;;7.27;;
1509;SDS011;746;48.688;9.428;2022-07-29T06:57:44;8.27;;;7.47;;
1509;SDS011;746;48.688;9.428;2022-07-29T07:00:10;7.73;;;7.03;;
1509;SDS011;746;48.688;9.428;2022-07-29T07:02:33;8.00;;;7.20;;
1509;SDS011;746;48.688;9.428;2022-07-29T07:04:56;8.03;;;7.43;;
1509;SDS011;746;48.688;9.428;2022-07-29T07:07:18;8.13;;;7.53;;
1509;SDS011;746;48.688;9.428;2022-07-29T07:09:39;8.57;;;7.83;;
1509;SDS011;746;48.688;9.428;2022-07-29T07:12:01;7.60;;;7.10;;
1509;SDS011;746;48.688;9.428;2022-07-29T07:14:22;7.17;;;6.67;;
1509;SDS011;746;48.688;9.428;2022-07-29T07:16:46;7.10;;;6.50;;
1509;SDS011;746;48.688;9.428;2022-07-29T07:19:11;8.10;;;7.30;;
1509;SDS011;746;48.688;9.428;2022-07-29T07:21:34;8.00;;;7.30;;
1509;SDS011;746;48.688;9.428;2022-07-29T07:23:55;7.60;;;7.07;;
1509;SDS011;746;48.688;9.428;2022-07-29T07:26:17;7.40;;;6.70;;
1509;SDS011;746;48.688;9.428;2022-07-29T07:28:38;8.10;;;7.50;;
1509;SDS011;746;48.688;9.428;2022-07-29T07:30:59;7.80;;;7.30;;
1509;SDS011;746;48.688;9.428;2022-07-29T07:33:20;7.90;;;7.37;;
1509;SDS011;746;48.688;9.428;2022-07-29T07:35:42;7.97;;;7.27;;
1509;SDS011;746;48.688;9.428;2022-07-29T07:38:05;7.53;;;6.90;;
1509;SDS011;746;48.688;9.428;2022-07-29T07:40:26;8.17;;;6.80;;
1509;SDS011;746;48.688;9.428;2022-07-29T07:42:48;7.10;;;6.60;;
1509;SDS011;746;48.688;9.428;2022-07-29T07:45:10;6.53;;;6.03;;
1509;SDS011;746;48.688;9.428;2022-07-29T07:47:35;8.60;;;6.63;;
1509;SDS011;746;48.688;9.428;2022-07-29T07:49:56;7.43;;;6.87;;
1509;SDS011;746;48.688;9.428;2022-07-29T07:52:19;6.90;;;6.47;;
1509;SDS011;746;48.688;9.428;2022-07-29T07:54:42;6.30;;;5.70;;
1509;SDS011;746;48.688;9.428;2022-07-29T07:57:04;6.47;;;6.00;;
1509;SDS011;746;48.688;9.428;2022-07-29T07:59:26;6.33;;;5.93;;
1509;SDS011;746;48.688;9.428;2022-07-29T08:01:47;6.53;;;5.93;;
1509;SDS011;746;48.688;9.428;2022-07-29T08:04:15;6.40;;;5.97;;
1509;SDS011;746;48.688;9.428;2022-07-29T08:06:43;6.00;;;5.60;;
1509;SDS011;746;48.688;9.428;2022-07-29T08:09:05;6.43;;;5.80;;
1509;SDS011;746;48.688;9.428;2022-07-29T08:11:48;6.43;;;5.90;;
1509;SDS011;746;48.688;9.428;2022-07-29T08:14:11;6.53;;;5.97;;
1509;SDS011;746;48.688;9.428;2022-07-29T08:16:33;7.27;;;6.67;;
1509;SDS011;746;48.688;9.428;2022-07-29T08:18:55;6.50;;;6.00;;
1509;SDS011;746;48.688;9.428;2022-07-29T08:21:17;6.03;;;5.73;;
1509;SDS011;746;48.688;9.428;2022-07-29T08:23:38;6.90;;;6.30;;
1509;SDS011;746;48.688;9.428;2022-07-29T08:26:13;6.67;;;6.17;;
1509;SDS011;746;48.688;9.428;2022-07-29T08:28:35;7.20;;;6.60;;
1509;SDS011;746;48.688;9.428;2022-07-29T08:30:57;6.80;;;6.27;;
1509;SDS011;746;48.688;9.428;2022-07-29T08:33:19;6.10;;;5.70;;
1509;SDS011;746;48.688;9.428;2022-07-29T08:35:40;5.63;;;5.33;;
1509;SDS011;746;48.688;9.428;2022-07-29T08:38:02;6.40;;;5.90;;
1509;SDS011;746;48.688;9.428;2022-07-29T08:40:24;6.30;;;5.70;;
1509;SDS011;746;48.688;9.428;2022-07-29T08:42:51;6.17;;;5.53;;
1509;SDS011;746;48.688;9.428;2022-07-29T08:45:13;6.17;;;5.77;;
1509;SDS011;746;48.688;9.428;2022-07-29T08:47:35;6.37;;;5.77;;
1509;SDS011;746;48.688;9.428;2022-07-29T08:49:59;6.33;;;5.83;;
1509;SDS011;746;48.688;9.428;2022-07-29T08:52:21;6.10;;;5.50;;
1509;SDS011;746;48.688;9.428;2022-07-29T08:54:43;6.73;;;6.03;;
1509;SDS011;746;48.688;9.428;2022-07-29T08:57:04;6.87;;;6.27;;
1509;SDS011;746;48.688;9.428;2022-07-29T08:59:27;7.57;;;6.87;;
1509;SDS011;746;48.688;9.428;2022-07-29T09:01:52;6.90;;;6.20;;
1509;SDS011;746;48.688;9.428;2022-07-29T09:04:16;6.70;;;6.20;;
1509;SDS011;746;48.688;9.428;2022-07-29T09:06:42;6.60;;;6.00;;
1509;SDS011;746;48.688;9.428;2022-07-29T09:09:06;6.23;;;5.63;;
1509;SDS011;746;48.688;9.428;2022-07-29T09:11:28;5.93;;;5.50;;
1509;SDS011;746;48.688;9.428;2022-07-29T09:13:49;6.67;;;6.07;;
1509;SDS011;746;48.688;9.428;2022-07-29T09:16:11;7.50;;;5.50;;
1509;SDS011;746;48.688;9.428;2022-07-29T09:18:53;6.00;;;5.43;;
1509;SDS011;746;48.688;9.428;2022-07-29T09:21:15;6.20;;;5.70;;
1509;SDS011;746;48.688;9.428;2022-07-29T09:24:01;6.00;;;5.53;;
1509;SDS011;746;48.688;9.428;2022-07-29T09:26:27;5.73;;;5.33;;
1509;SDS011;746;48.688;9.428;2022-07-29T09:28:49;6.10;;;5.60;;
1509;SDS011;746;48.688;9.428;2022-07-29T09:31:11;5.70;;;5.30;;
1509;SDS011;746;48.688;9.428;2022-07-29T09:33:33;5.13;;;4.83;;
1509;SDS011;746;48.688;9.428;2022-07-29T09:36:00;5.67;;;5.03;;
1509;SDS011;746;48.688;9.428;2022-07-29T09:38:24;5.80;;;5.40;;
1509;SDS011;746;48.688;9.428;2022-07-29T09:40:55;5.63;;;5.13;;
1509;SDS011;746;48.688;9.428;2022-07-29T09:43:24;5.70;;;5.30;;
1509;SDS011;746;48.688;9.428;2022-07-29T09:45:46;5.60;;;5.10;;
1509;SDS011;746;48.688;9.428;2022-07-29T09:48:16;6.10;;;5.50;;
1509;SDS011;746;48.688;9.428;2022-07-29T09:50:38;5.83;;;5.27;;
1509;SDS011;746;48.688;9.428;2022-07-29T09:53:02;5.67;;;5.17;;
1509;SDS011;746;48.688;9.428;2022-07-29T09:55:24;5.80;;;5.30;;
1509;SDS011;746;48.688;9.428;2022-07-29T09:57:45;5.63;;;5.13;;
1509;SDS011;746;48.688;9.428;2022-07-29T10:00:08;5.93;;;5.30;;
1509;SDS011;746;48.688;9.428;2022-07-29T10:02:31;5.90;;;5.50;;
1509;SDS011;746;48.688;9.428;2022-07-29T10:04:53;5.87;;;5.33;;
1509;SDS011;746;48.688;9.428;2022-07-29T10:07:15;5.83;;;5.33;;
1509;SDS011;746;48.688;9.428;2022-07-29T10:09:38;5.30;;;4.90;;
1509;SDS011;746;48.688;9.428;2022-07-29T10:12:03;7.10;;;5.77;;
1509;SDS011;746;48.688;9.428;2022-07-29T10:14:26;5.40;;;4.87;;
1509;SDS011;746;48.688;9.428;2022-07-29T10:16:48;5.60;;;4.90;;
1509;SDS011;746;48.688;9.428;2022-07-29T10:19:09;7.13;;;5.13;;
1509;SDS011;746;48.688;9.428;2022-07-29T10:21:32;5.73;;;5.23;;
1509;SDS011;746;48.688;9.428;2022-07-29T10:23:56;5.63;;;5.23;;
1509;SDS011;746;48.688;9.428;2022-07-29T10:26:21;5.80;;;5.27;;
1509;SDS011;746;48.688;9.428;2022-07-29T10:28:43;5.47;;;5.07;;
1509;SDS011;746;48.688;9.428;2022-07-29T10:31:05;5.07;;;4.73;;
1509;SDS011;746;48.688;9.428;2022-07-29T10:33:32;5.33;;;4.83;;
1509;SDS011;746;48.688;9.428;2022-07-29T10:36:07;5.47;;;4.80;;
1509;SDS011;746;48.688;9.428;2022-07-29T10:38:44;5.23;;;4.83;;
1509;SDS011;746;48.688;9.428;2022-07-29T10:41:11;5.53;;;5.03;;
1509;SDS011;746;48.688;9.428;2022-07-29T10:43:53;4.63;;;4.33;;
1509;SDS011;746;48.688;9.428;2022-07-29T10:46:16;4.97;;;4.67;;
1509;SDS011;746;48.688;9.428;2022-07-29T10:51:36;5.00;;;4.70;;
1509;SDS011;746;48.688;9.428;2022-07-29T10:54:13;5.57;;;5.07;;
1509;SDS011;746;48.688;9.428;2022-07-29T10:56:35;6.97;;;5.00;;
1509;SDS011;746;48.688;9.428;2022-07-29T11:01:55;4.93;;;4.63;;
1509;SDS011;746;48.688;9.428;2022-07-29T11:07:20;6.63;;;5.13;;
1509;SDS011;746;48.688;9.428;2022-07-29T11:09:42;5.57;;;5.17;;
1509;SDS011;746;48.688;9.428;2022-07-29T11:12:07;5.20;;;4.80;;
1509;SDS011;746;48.688;9.428;2022-07-29T11:15:18;5.77;;;5.27;;
1509;SDS011;746;48.688;9.428;2022-07-29T11:20:38;5.40;;;4.83;;
1509;SDS011;746;48.688;9.428;2022-07-29T11:23:02;5.50;;;5.03;;
1509;SDS011;746;48.688;9.428;2022-07-29T11:25:38;5.47;;;5.07;;
1509;SDS011;746;48.688;9.428;2022-07-29T11:28:10;5.70;;;5.00;;
1509;SDS011;746;48.688;9.428;2022-07-29T11:30:48;5.97;;;5.53;;
1509;SDS011;746;48.688;9.428;2022-07-29T11:36:10;5.60;;;5.10;;
1509;SDS011;746;48.688;9.428;2022-07-29T11:38:35;6.00;;;5.40;;
1509;SDS011;746;48.688;9.428;2022-07-29T11:41:19;12.80;;;4.50;;
1509;SDS011;746;48.688;9.428;2022-07-29T11:43:48;4.27;;;3.93;;
1509;SDS011;746;48.688;9.428;2022-07-29T11:46:12;6.03;;;4.40;;
1509;SDS011;746;48.688;9.428;2022-07-29T11:48:34;4.67;;;3.33;;
1509;SDS011;746;48.688;9.428;2022-07-29T11:50:57;4.07;;;3.67;;
1509;SDS011;746;48.688;9.428;2022-07-29T11:53:19;3.10;;;2.70;;
1509;SDS011;746;48.688;9.428;2022-07-29T11:55:41;8.60;;;3.70;;
1509;SDS011;746;48.688;9.428;2022-07-29T11:58:10;4.20;;;3.80;;
1509;SDS011;746;48.688;9.428;2022-07-29T12:00:33;3.50;;;3.30;;
1509;SDS011;746;48.688;9.428;2022-07-29T12:02:59;4.10;;;3.70;;
1509;SDS011;746;48.688;9.428;2022-07-29T12:05:30;4.17;;;3.83;;
1509;SDS011;746;48.688;9.428;2022-07-29T12:07:57;4.63;;;4.30;;
1509;SDS011;746;48.688;9.428;2022-07-29T12:10:31;4.77;;;4.37;;
1509;SDS011;746;48.688;9.428;2022-07-29T12:12:52;4.73;;;4.17;;
1509;SDS011;746;48.688;9.428;2022-07-29T12:15:14;4.80;;;4.30;;
1509;SDS011;746;48.688;9.428;2022-07-29T12:17:41;4.60;;;4.30;;
1509;SDS011;746;48.688;9.428;2022-07-29T12:20:05;4.40;;;4.10;;
1509;SDS011;746;48.688;9.428;2022-07-29T12:22:27;5.90;;;5.20;;
1509;SDS011;746;48.688;9.428;2022-07-29T12:24:49;4.37;;;3.97;;
1509;SDS011;746;48.688;9.428;2022-07-29T12:27:16;3.50;;;3.30;;
1509;SDS011;746;48.688;9.428;2022-07-29T12:29:55;3.93;;;3.50;;
1509;SDS011;746;48.688;9.428;2022-07-29T12:32:17;4.00;;;3.73;;
1509;SDS011;746;48.688;9.428;2022-07-29T12:34:39;4.00;;;3.70;;
1509;SDS011;746;48.688;9.428;2022-07-29T12:37:02;3.90;;;3.50;;
1509;SDS011;746;48.688;9.428;2022-07-29T12:39:25;4.17;;;3.50;;
1509;SDS011;746;48.688;9.428;2022-07-29T12:41:48;3.93;;;3.30;;
1509;SDS011;746;48.688;9.428;2022-07-29T12:44:09;3.57;;;3.20;;
1509;SDS011;746;48.688;9.428;2022-07-29T12:46:31;3.80;;;3.47;;
1509;SDS011;746;48.688;9.428;2022-07-29T12:48:53;3.77;;;3.30;;
1509;SDS011;746;48.688;9.428;2022-07-29T12:51:16;6.53;;;3.50;;
1509;SDS011;746;48.688;9.428;2022-07-29T12:53:39;3.67;;;3.30;;
1509;SDS011;746;48.688;9.428;2022-07-29T12:56:02;3.50;;;3.30;;
1509;SDS011;746;48.688;9.428;2022-07-29T12:58:44;3.80;;;3.40;;
1509;SDS011;746;48.688;9.428;2022-07-29T13:01:11;3.73;;;3.53;;
1509;SDS011;746;48.688;9.428;2022-07-29T13:03:47;4.43;;;4.07;;
1509;SDS011;746;48.688;9.428;2022-07-29T13:06:34;4.57;;;4.27;;
1509;SDS011;746;48.688;9.428;2022-07-29T13:09:02;4.60;;;4.30;;
1509;SDS011;746;48.688;9.428;2022-07-29T13:11:27;4.50;;;4.10;;
1509;SDS011;746;48.688;9.428;2022-07-29T13:13:53;4.57;;;3.90;;
1509;SDS011;746;48.688;9.428;2022-07-29T13:16:26;4.40;;;4.00;;
1509;SDS011;746;48.688;9.428;2022-07-29T13:18:48;4.40;;;4.00;;
1509;SDS011;746;48.688;9.428;2022-07-29T13:21:10;4.63;;;4.33;;
1509;SDS011;746;48.688;9.428;2022-07-29T13:23:32;4.53;;;4.23;;
1509;SDS011;746;48.688;9.428;2022-07-29T13:26:06;4.57;;;4.27;;
1509;SDS011;746;48.688;9.428;2022-07-29T13:28:27;4.70;;;4.30;;
1509;SDS011;746;48.688;9.428;2022-07-29T13:30:49;5.40;;;5.00;;
1509;SDS011;746;48.688;9.428;2022-07-29T13:33:11;5.80;;;5.30;;
1509;SDS011;746;48.688;9.428;2022-07-29T13:35:32;4.80;;;4.50;;
1509;SDS011;746;48.688;9.428;2022-07-29T13:37:58;5.07;;;4.67;;
1509;SDS011;746;48.688;9.428;2022-07-29T13:40:20;5.00;;;4.60;;
1509;SDS011;746;48.688;9.428;2022-07-29T13:42:43;5.10;;;4.70;;
1509;SDS011;746;48.688;9.428;2022-07-29T13:45:06;5.60;;;5.20;;
1509;SDS011;746;48.688;9.428;2022-07-29T13:47:28;5.33;;;4.93;;
1509;SDS011;746;48.688;9.428;2022-07-29T13:49:52;5.40;;;5.00;;
1509;SDS011;746;48.688;9.428;2022-07-29T13:52:13;5.53;;;5.00;;
1509;SDS011;746;48.688;9.428;2022-07-29T13:54:35;5.30;;;4.87;;
1509;SDS011;746;48.688;9.428;2022-07-29T13:57:01;5.90;;;5.50;;
1509;SDS011;746;48.688;9.428;2022-07-29T13:59:24;5.40;;;5.00;;
1509;SDS011;746;48.688;9.428;2022-07-29T14:01:46;5.73;;;5.23;;
1509;SDS011;746;48.688;9.428;2022-07-29T14:04:08;5.83;;;5.33;;
1509;SDS011;746;48.688;9.428;2022-07-29T14:06:31;5.60;;;5.20;;
1509;SDS011;746;48.688;9.428;2022-07-29T14:08:53;5.10;;;4.70;;
1509;SDS011;746;48.688;9.428;2022-07-29T14:11:14;5.50;;;5.10;;
1509;SDS011;746;48.688;9.428;2022-07-29T14:13:36;5.00;;;4.63;;
1509;SDS011;746;48.688;9.428;2022-07-29T14:16:00;5.07;;;4.60;;
1509;SDS011;746;48.688;9.428;2022-07-29T14:18:22;4.90;;;4.57;;
1509;SDS011;746;48.688;9.428;2022-07-29T14:20:43;5.40;;;5.00;;
1509;SDS011;746;48.688;9.428;2022-07-29T14:23:05;5.03;;;4.73;;
1509;SDS011;746;48.688;9.428;2022-07-29T14:25:27;4.97;;;4.67;;
1509;SDS011;746;48.688;9.428;2022-07-29T14:27:48;5.60;;;5.10;;
1509;SDS011;746;48.688;9.428;2022-07-29T14:30:10;5.30;;;4.90;;
1509;SDS011;746;48.688;9.428;2022-07-29T14:32:34;5.30;;;4.90;;
1509;SDS011;746;48.688;9.428;2022-07-29T14:34:55;4.77;;;4.47;;
1509;SDS011;746;48.688;9.428;2022-07-29T14:37:17;5.53;;;5.03;;
1509;SDS011;746;48.688;9.428;2022-07-29T14:39:39;7.80;;;4.77;;
1509;SDS011;746;48.688;9.428;2022-07-29T14:42:02;6.10;;;5.60;;
1509;SDS011;746;48.688;9.428;2022-07-29T14:44:24;5.20;;;4.80;;
1509;SDS011;746;48.688;9.428;2022-07-29T14:46:51;6.37;;;5.60;;
1509;SDS011;746;48.688;9.428;2022-07-29T14:49:14;5.23;;;4.90;;
1509;SDS011;746;48.688;9.428;2022-07-29T14:51:35;5.47;;;5.17;;
1509;SDS011;746;48.688;9.428;2022-07-29T14:53:59;5.03;;;4.70;;
1509;SDS011;746;48.688;9.428;2022-07-29T14:56:21;5.17;;;4.77;;
1509;SDS011;746;48.688;9.428;2022-07-29T14:59:02;4.70;;;4.40;;
1509;SDS011;746;48.688;9.428;2022-07-29T15:01:24;6.37;;;4.97;;
1509;SDS011;746;48.688;9.428;2022-07-29T15:03:46;4.60;;;4.30;;
1509;SDS011;746;48.688;9.428;2022-07-29T15:06:09;4.90;;;4.50;;
1509;SDS011;746;48.688;9.428;2022-07-29T15:08:30;4.60;;;4.20;;
1509;SDS011;746;48.688;9.428;2022-07-29T15:10:51;4.97;;;4.40;;
1509;SDS011;746;48.688;9.428;2022-07-29T15:13:13;4.23;;;4.03;;